createdAt,value
2017-11-03T00:02:21.189Z,38.43
2017-11-03T00:04:48.688Z,42.80
2017-11-03T00:07:16.268Z,42.53
2017-11-03T00:09:43.757Z,39.60
2017-11-03T00:12:11.260Z,35.20
2017-11-03T00:14:38.739Z,39.40
2017-11-03T00:17:06.235Z,36.50
2017-11-03T00:19:33.829Z,36.37
2017-11-03T00:22:01.393Z,35.87
2017-11-03T00:24:28.948Z,37.83
2017-11-03T00:26:56.457Z,36.07
2017-11-03T00:29:23.953Z,35.60
2017-11-03T00:31:51.449Z,35.07
2017-11-03T00:34:18.957Z,35.43
2017-11-03T00:36:47.220Z,37.77
2017-11-03T00:39:14.805Z,33.67
2017-11-03T00:41:43.089Z,34.37
2017-11-03T00:44:10.592Z,35.60
2017-11-03T00:46:38.093Z,35.40
2017-11-03T00:49:06.371Z,32.87
2017-11-03T00:51:33.881Z,33.40
2017-11-03T00:54:01.393Z,34.07
2017-11-03T00:56:29.769Z,32.03
2017-11-03T00:58:58.017Z,31.60
2017-11-03T01:01:25.513Z,32.03
2017-11-03T01:03:53.038Z,35.27
2017-11-03T01:06:21.297Z,32.77
2017-11-03T01:08:48.798Z,35.43
2017-11-03T01:11:16.316Z,28.73
2017-11-03T01:13:44.633Z,33.10
2017-11-03T01:16:12.200Z,31.50
2017-11-03T01:18:39.714Z,31.50
2017-11-03T01:21:07.305Z,31.80
2017-11-03T01:23:35.554Z,30.23
2017-11-03T01:26:03.074Z,29.07
2017-11-03T01:28:30.601Z,28.63
2017-11-03T01:30:58.858Z,25.17
2017-11-03T01:33:27.155Z,23.77
2017-11-03T01:35:54.655Z,22.63
2017-11-03T01:38:22.147Z,21.23
2017-11-03T01:40:49.661Z,21.70
2017-11-03T01:43:17.190Z,20.53
2017-11-03T01:45:44.676Z,19.73
2017-11-03T01:48:12.189Z,20.23
2017-11-03T01:50:40.451Z,20.50
2017-11-03T01:53:07.954Z,20.53
2017-11-03T01:55:35.481Z,24.03
2017-11-03T01:58:03.742Z,25.10
2017-11-03T02:00:31.329Z,23.17
2017-11-03T02:02:59.629Z,25.27
2017-11-03T02:05:27.118Z,26.53
2017-11-03T02:07:54.617Z,26.40
2017-11-03T02:10:22.921Z,26.63
2017-11-03T02:12:50.419Z,26.70
2017-11-03T02:15:17.915Z,24.47
2017-11-03T02:17:46.212Z,24.33
2017-11-03T02:20:13.711Z,30.00
2017-11-03T02:22:41.206Z,26.03
2017-11-03T02:25:09.489Z,30.33
2017-11-03T02:27:36.995Z,33.33
2017-11-03T02:30:04.504Z,31.27
2017-11-03T02:32:32.034Z,26.27
2017-11-03T02:34:59.522Z,26.47
2017-11-03T02:37:27.016Z,25.80
2017-11-03T02:39:54.531Z,26.60
2017-11-03T02:42:22.791Z,25.17
2017-11-03T02:44:51.042Z,24.13
2017-11-03T02:47:18.641Z,27.83
2017-11-03T02:49:46.895Z,32.30
2017-11-03T02:52:14.389Z,29.57
2017-11-03T02:54:41.906Z,31.77
2017-11-03T02:57:09.489Z,33.13
2017-11-03T02:59:37.737Z,30.03
2017-11-03T03:02:05.285Z,30.97
2017-11-03T03:04:32.794Z,27.10
2017-11-03T03:07:00.284Z,28.77
2017-11-03T03:09:27.804Z,31.87
2017-11-03T03:11:55.363Z,30.77
2017-11-03T03:14:23.622Z,30.37
2017-11-03T03:16:51.914Z,31.07
2017-11-03T03:19:20.194Z,29.60
2017-11-03T03:21:48.458Z,30.70
2017-11-03T03:24:16.852Z,31.60
2017-11-03T03:26:44.346Z,30.70
2017-11-03T03:29:11.835Z,33.97
2017-11-03T03:31:39.441Z,34.17
2017-11-03T03:34:06.929Z,31.43
2017-11-03T03:36:34.460Z,36.40
2017-11-03T03:39:01.966Z,33.60
2017-11-03T03:41:29.566Z,34.63
2017-11-03T03:43:57.049Z,35.17
2017-11-03T03:46:24.571Z,34.77
2017-11-03T03:48:52.827Z,34.57
2017-11-03T03:51:21.087Z,35.10
2017-11-03T03:53:48.622Z,33.67
2017-11-03T03:56:16.127Z,30.33
2017-11-03T03:58:44.397Z,30.63
2017-11-03T04:03:45.783Z,30.37
2017-11-03T04:06:14.059Z,29.53
2017-11-03T04:08:41.560Z,26.93
2017-11-03T04:11:09.053Z,29.17
2017-11-03T04:13:36.567Z,26.03
2017-11-03T04:16:04.053Z,29.73
2017-11-03T04:18:31.551Z,28.27
2017-11-03T04:20:59.127Z,27.27
2017-11-03T04:23:26.619Z,25.87
2017-11-03T04:25:54.122Z,26.03
2017-11-03T04:28:22.438Z,31.73
2017-11-03T04:30:49.929Z,31.23
2017-11-03T04:33:17.541Z,31.33
2017-11-03T04:35:45.053Z,31.40
2017-11-03T04:38:12.540Z,34.37
2017-11-03T04:40:40.092Z,29.93
2017-11-03T04:43:08.376Z,36.73
2017-11-03T04:45:35.934Z,28.93
2017-11-03T04:48:03.424Z,26.20
2017-11-03T04:50:30.937Z,26.90
2017-11-03T04:52:59.222Z,25.47
2017-11-03T04:55:27.502Z,24.00
2017-11-03T04:57:55.010Z,26.80
2017-11-03T05:00:22.498Z,24.73
2017-11-03T05:02:50.783Z,27.93
2017-11-03T05:05:19.063Z,24.20
2017-11-03T05:07:47.336Z,23.77
2017-11-03T05:10:15.590Z,21.97
2017-11-03T05:12:43.089Z,22.73
2017-11-03T05:15:10.577Z,21.27
2017-11-03T05:17:38.067Z,27.00
2017-11-03T05:20:05.591Z,24.87
2017-11-03T05:22:33.089Z,21.70
2017-11-03T05:25:01.349Z,21.23
2017-11-03T05:27:28.878Z,20.00
2017-11-03T05:29:56.377Z,20.33
2017-11-03T05:32:23.880Z,22.97
2017-11-03T05:34:51.389Z,20.37
2017-11-03T05:37:18.881Z,17.87
2017-11-03T05:39:46.441Z,20.30
2017-11-03T05:42:13.950Z,23.40
2017-11-03T05:44:41.441Z,18.47
2017-11-03T05:47:09.710Z,20.80
2017-11-03T05:49:37.998Z,19.07
2017-11-03T05:52:06.257Z,18.23
2017-11-03T05:54:33.837Z,22.77
2017-11-03T05:57:02.156Z,21.73
2017-11-03T05:59:29.661Z,22.70
2017-11-03T06:01:57.913Z,22.83
2017-11-03T06:04:25.460Z,22.80
2017-11-03T06:06:52.992Z,24.50
2017-11-03T06:09:20.515Z,24.90
2017-11-03T06:11:48.806Z,23.47
2017-11-03T06:14:16.483Z,27.07
2017-11-03T06:16:44.029Z,24.43
2017-11-03T06:19:11.534Z,25.63
2017-11-03T06:21:39.088Z,23.73
2017-11-03T06:24:06.573Z,26.13
2017-11-03T06:26:34.084Z,23.63
2017-11-03T06:29:01.573Z,26.87
2017-11-03T06:31:29.057Z,23.63
2017-11-03T06:33:57.352Z,23.60
2017-11-03T06:36:25.516Z,25.93
2017-11-03T06:38:53.773Z,22.90
2017-11-03T06:41:25.575Z,27.73
2017-11-03T06:43:53.066Z,22.90
2017-11-03T06:46:20.930Z,45.13
2017-11-03T06:48:48.501Z,28.90
2017-11-03T06:51:15.990Z,26.20
2017-11-03T06:53:44.463Z,23.97
2017-11-03T06:56:13.508Z,26.37
2017-11-03T06:58:42.789Z,25.03
2017-11-03T07:01:10.281Z,29.07
2017-11-03T07:03:37.789Z,26.97
2017-11-03T07:06:06.054Z,25.07
2017-11-03T07:08:34.313Z,23.43
2017-11-03T07:11:01.818Z,26.30
2017-11-03T07:13:29.304Z,25.13
2017-11-03T07:15:56.800Z,28.40
2017-11-03T07:18:25.096Z,29.60
2017-11-03T07:20:52.701Z,27.20
2017-11-03T07:23:20.284Z,26.67
2017-11-03T07:25:48.631Z,27.53
2017-11-03T07:28:16.116Z,30.57
2017-11-03T07:30:43.717Z,30.77
2017-11-03T07:33:11.256Z,28.47
2017-11-03T07:35:40.241Z,29.23
2017-11-03T07:38:08.529Z,30.67
2017-11-03T07:40:36.813Z,30.20
2017-11-03T07:43:04.319Z,32.23
2017-11-03T07:45:31.825Z,32.33
2017-11-03T07:48:00.102Z,28.30
2017-11-03T07:50:28.393Z,29.87
2017-11-03T07:53:00.277Z,30.60
2017-11-03T07:55:27.769Z,29.67
2017-11-03T07:57:55.264Z,31.60
2017-11-03T08:00:22.823Z,29.73
2017-11-03T08:02:50.371Z,26.20
2017-11-03T08:05:18.695Z,28.60
2017-11-03T08:07:46.208Z,28.23
2017-11-03T08:10:13.704Z,31.07
2017-11-03T08:12:41.197Z,28.27
2017-11-03T08:15:08.722Z,30.20
2017-11-03T08:17:36.220Z,29.50
2017-11-03T08:20:04.525Z,29.83
2017-11-03T08:22:32.118Z,25.90
2017-11-03T08:24:59.651Z,27.53
2017-11-03T08:27:27.151Z,29.03
2017-11-03T08:29:54.752Z,28.77
2017-11-03T08:32:23.009Z,28.77
2017-11-03T08:34:50.499Z,23.33
2017-11-03T08:37:18.026Z,25.07
2017-11-03T08:39:45.518Z,24.13
2017-11-03T08:42:13.073Z,25.93
2017-11-03T08:44:40.620Z,24.10
2017-11-03T08:47:08.889Z,25.30
2017-11-03T08:49:37.146Z,24.13
2017-11-03T08:52:04.873Z,22.23
2017-11-03T08:54:32.383Z,22.47
2017-11-03T08:57:00.633Z,22.27
2017-11-03T08:59:28.164Z,19.10
2017-11-03T09:01:55.671Z,22.70
2017-11-03T09:04:23.933Z,19.07
2017-11-03T09:06:51.476Z,20.40
2017-11-03T09:09:18.975Z,16.67
2017-11-03T09:11:47.232Z,18.00
2017-11-03T09:14:14.746Z,19.80
2017-11-03T09:16:42.239Z,16.43
2017-11-03T09:19:09.833Z,18.87
2017-11-03T09:21:37.350Z,19.93
2017-11-03T09:24:05.200Z,17.23
2017-11-03T09:26:32.721Z,17.20
2017-11-03T09:29:00.273Z,17.03
2017-11-03T09:31:28.545Z,17.47
2017-11-03T09:33:56.825Z,18.43
2017-11-03T09:36:25.214Z,17.07
2017-11-03T09:38:52.779Z,17.67
2017-11-03T09:41:20.278Z,15.17
2017-11-03T09:43:47.804Z,17.87
2017-11-03T09:46:15.341Z,14.17
2017-11-03T09:48:43.610Z,14.17
2017-11-03T09:51:12.006Z,16.47
2017-11-03T09:53:39.518Z,16.87
2017-11-03T09:56:07.023Z,16.60
2017-11-03T09:58:34.544Z,17.37
2017-11-03T10:01:02.125Z,12.93
2017-11-03T10:03:30.412Z,13.53
2017-11-03T10:05:57.924Z,12.77
2017-11-03T10:08:25.439Z,15.83
2017-11-03T10:10:52.937Z,13.70
2017-11-03T10:13:20.455Z,15.27
2017-11-03T10:15:47.946Z,14.53
2017-11-03T10:18:15.435Z,13.57
2017-11-03T10:20:42.945Z,12.00
2017-11-03T10:23:10.439Z,13.47
2017-11-03T10:25:37.934Z,13.03
2017-11-03T10:28:05.484Z,11.47
2017-11-03T10:30:34.635Z,13.53
2017-11-03T10:33:02.145Z,14.00
2017-11-03T10:35:29.723Z,13.17
2017-11-03T10:37:57.211Z,12.80
2017-11-03T10:40:24.711Z,16.13
2017-11-03T10:42:53.089Z,16.23
2017-11-03T10:45:21.356Z,14.63
2017-11-03T10:47:49.659Z,11.77
2017-11-03T10:50:17.176Z,11.03
2017-11-03T10:52:44.724Z,11.53
2017-11-03T10:55:12.216Z,11.67
2017-11-03T10:57:40.497Z,11.27
2017-11-03T11:00:08.783Z,11.37
2017-11-03T11:02:36.342Z,13.13
2017-11-03T11:05:03.859Z,12.63
2017-11-03T11:07:31.359Z,13.60
2017-11-03T11:09:58.840Z,9.60
2017-11-03T11:12:26.472Z,12.30
2017-11-03T11:14:53.985Z,12.00
2017-11-03T11:17:21.477Z,11.40
2017-11-03T11:19:49.796Z,10.27
2017-11-03T11:22:17.289Z,11.63
2017-11-03T11:24:44.798Z,11.00
2017-11-03T11:27:12.336Z,11.87
2017-11-03T11:29:40.599Z,12.03
2017-11-03T11:32:08.844Z,11.93
2017-11-03T11:34:36.446Z,11.53
2017-11-03T11:37:04.712Z,15.30
2017-11-03T11:39:32.973Z,11.20
2017-11-03T11:42:00.484Z,13.17
2017-11-03T11:44:27.972Z,10.07
2017-11-03T11:46:55.456Z,9.27
2017-11-03T11:49:23.030Z,9.90
2017-11-03T11:51:51.285Z,13.47
2017-11-03T11:54:18.877Z,10.10
2017-11-03T11:56:46.584Z,9.87
2017-11-03T11:59:14.113Z,11.63
2017-11-03T12:01:41.669Z,10.57
2017-11-03T12:04:09.232Z,10.90
2017-11-03T12:06:36.737Z,11.13
2017-11-03T12:09:04.346Z,11.00
2017-11-03T12:11:31.862Z,12.17
2017-11-03T12:13:59.373Z,11.37
2017-11-03T12:16:26.859Z,12.10
2017-11-03T12:18:54.486Z,11.23
2017-11-03T12:21:21.973Z,11.33
2017-11-03T12:23:49.501Z,11.23
2017-11-03T12:26:17.040Z,11.10
2017-11-03T12:28:45.300Z,10.30
2017-11-03T12:31:13.596Z,11.10
2017-11-03T12:33:47.294Z,12.07
2017-11-03T12:36:15.540Z,8.03
2017-11-03T12:38:43.028Z,9.03
2017-11-03T12:41:10.599Z,10.43
2017-11-03T12:43:38.125Z,10.57
2017-11-03T12:46:05.729Z,9.37
2017-11-03T12:48:33.265Z,12.00
2017-11-03T12:51:01.525Z,10.47
2017-11-03T12:53:29.838Z,9.53
2017-11-03T12:55:57.497Z,9.90
2017-11-03T12:58:25.093Z,9.97
2017-11-03T13:00:52.576Z,11.07
2017-11-03T13:03:20.088Z,10.90
2017-11-03T13:05:47.571Z,8.57
2017-11-03T13:08:15.073Z,9.23
2017-11-03T13:10:43.857Z,8.77
2017-11-03T13:13:12.145Z,9.33
2017-11-03T13:15:39.637Z,8.20
2017-11-03T13:18:07.276Z,11.23
2017-11-03T13:20:34.830Z,9.43
2017-11-03T13:23:02.502Z,9.57
2017-11-03T13:25:30.054Z,11.80
2017-11-03T13:27:58.026Z,13.13
2017-11-03T13:30:25.530Z,11.43
2017-11-03T13:32:53.142Z,7.33
2017-11-03T13:35:20.660Z,10.80
2017-11-03T13:37:48.152Z,11.97
2017-11-03T13:40:15.726Z,8.93
2017-11-03T13:42:43.249Z,9.97
2017-11-03T13:45:11.507Z,9.17
2017-11-03T13:47:39.036Z,10.50
2017-11-03T13:50:06.518Z,9.67
2017-11-03T13:52:34.018Z,10.80
2017-11-03T13:55:01.587Z,8.17
2017-11-03T13:57:29.104Z,8.27
2017-11-03T13:59:56.589Z,10.23
2017-11-03T14:02:24.105Z,10.10
2017-11-03T14:04:51.700Z,9.33
2017-11-03T14:07:19.945Z,7.70
2017-11-03T14:09:47.462Z,11.10
2017-11-03T14:12:14.949Z,9.63
2017-11-03T14:14:42.441Z,9.27
2017-11-03T14:17:10.722Z,7.40
2017-11-03T14:19:38.971Z,9.97
2017-11-03T14:22:06.570Z,7.40
2017-11-03T14:24:34.082Z,9.37
2017-11-03T14:27:01.690Z,8.63
2017-11-03T14:29:29.305Z,8.37
2017-11-03T14:31:56.922Z,7.13
2017-11-03T14:34:24.460Z,6.90
2017-11-03T14:36:52.759Z,6.73
2017-11-03T14:39:21.194Z,7.50
2017-11-03T14:41:48.806Z,6.33
2017-11-03T14:44:16.349Z,8.77
2017-11-03T14:46:43.894Z,6.27
2017-11-03T14:49:12.150Z,8.20
2017-11-03T14:51:39.633Z,7.43
2017-11-03T14:54:07.185Z,7.90
2017-11-03T14:56:35.438Z,9.27
2017-11-03T14:59:02.929Z,8.23
2017-11-03T15:01:30.462Z,6.40
2017-11-03T15:03:58.762Z,6.83
2017-11-03T15:06:26.249Z,12.33
2017-11-03T15:08:53.761Z,13.93
2017-11-03T15:11:22.013Z,13.40
2017-11-03T15:13:49.510Z,8.13
2017-11-03T15:16:17.129Z,7.87
2017-11-03T15:18:44.725Z,7.47
2017-11-03T15:21:13.050Z,17.20
2017-11-03T15:23:40.677Z,19.27
2017-11-03T15:26:08.187Z,58.37
2017-11-03T15:28:35.783Z,49.53
2017-11-03T15:31:04.058Z,43.63
2017-11-03T15:33:32.343Z,40.63
2017-11-03T15:35:59.853Z,41.83
2017-11-03T15:38:27.373Z,43.30
2017-11-03T15:40:54.860Z,39.13
2017-11-03T15:43:22.370Z,32.20
2017-11-03T15:45:50.675Z,27.00
2017-11-03T15:48:18.173Z,32.10
2017-11-03T15:50:45.765Z,33.73
2017-11-03T15:53:14.067Z,32.33
2017-11-03T15:55:41.544Z,30.00
2017-11-03T15:58:09.202Z,28.23
2017-11-03T16:00:37.537Z,27.50
2017-11-03T16:03:06.558Z,27.50
2017-11-03T16:05:34.083Z,30.10
2017-11-03T16:08:01.647Z,23.87
2017-11-03T16:10:29.917Z,26.67
2017-11-03T16:12:57.461Z,37.20
2017-11-03T16:15:25.015Z,57.83
2017-11-03T16:17:52.603Z,39.83
2017-11-03T16:20:20.889Z,38.20
2017-11-03T16:22:48.449Z,27.87
2017-11-03T16:25:15.949Z,25.73
2017-11-03T16:27:43.450Z,36.33
2017-11-03T16:30:11.775Z,29.53
2017-11-03T16:32:39.260Z,59.83
2017-11-03T16:35:06.747Z,85.33
2017-11-03T16:37:34.369Z,108.00
2017-11-03T16:40:01.960Z,119.10
2017-11-03T16:42:30.385Z,126.70
2017-11-03T16:44:57.985Z,148.63
2017-11-03T16:47:25.702Z,130.70
2017-11-03T16:49:53.248Z,108.50
2017-11-03T16:52:20.784Z,83.47
2017-11-03T16:54:49.058Z,89.83
2017-11-03T16:57:17.348Z,86.83
2017-11-03T16:59:44.871Z,74.10
2017-11-03T17:02:13.142Z,58.10
2017-11-03T17:04:40.638Z,57.20
2017-11-03T17:07:08.185Z,57.43
2017-11-03T17:09:36.453Z,47.53
2017-11-03T17:12:04.708Z,47.00
2017-11-03T17:14:32.268Z,61.70
2017-11-03T17:16:59.761Z,39.60
2017-11-03T17:19:28.072Z,41.77
2017-11-03T17:21:56.192Z,45.17
2017-11-03T17:24:24.460Z,49.20
2017-11-03T17:26:52.980Z,31.70
2017-11-03T17:29:20.532Z,33.67
2017-11-03T17:31:48.174Z,38.40
2017-11-03T17:34:16.433Z,29.30
2017-11-03T17:36:43.952Z,31.00
2017-11-03T17:39:11.515Z,27.80
2017-11-03T17:41:39.002Z,29.63
2017-11-03T17:44:06.644Z,25.63
2017-11-03T17:46:34.176Z,25.37
2017-11-03T17:49:01.684Z,24.63
2017-11-03T17:51:29.201Z,26.77
2017-11-03T17:53:56.709Z,30.27
2017-11-03T17:56:24.205Z,32.60
2017-11-03T17:58:51.759Z,33.10
2017-11-03T18:01:19.262Z,29.80
2017-11-03T18:03:46.772Z,28.70
2017-11-03T18:06:14.299Z,25.63
2017-11-03T18:08:42.580Z,27.30
2017-11-03T18:11:10.847Z,28.43
2017-11-03T18:13:39.157Z,36.50
2017-11-03T18:16:06.658Z,41.33
2017-11-03T18:18:34.190Z,30.93
2017-11-03T18:21:01.701Z,27.83
2017-11-03T18:23:29.289Z,25.97
2017-11-03T18:25:56.786Z,25.33
2017-11-03T18:28:24.401Z,27.43
2017-11-03T18:30:52.681Z,25.27
2017-11-03T18:33:20.189Z,25.40
2017-11-03T18:35:47.797Z,28.53
2017-11-03T18:38:16.091Z,26.17
2017-11-03T18:40:43.583Z,23.77
2017-11-03T18:43:11.097Z,35.87
2017-11-03T18:45:38.598Z,26.80
2017-11-03T18:48:06.106Z,29.33
2017-11-03T18:50:34.384Z,28.07
2017-11-03T18:53:02.661Z,27.60
2017-11-03T18:55:30.245Z,27.93
2017-11-03T18:57:57.757Z,31.23
2017-11-03T19:00:25.384Z,38.90
2017-11-03T19:02:52.897Z,28.83
2017-11-03T19:05:21.289Z,33.60
2017-11-03T19:07:48.836Z,27.57
2017-11-03T19:10:16.381Z,84.37
2017-11-03T19:12:44.663Z,117.30
2017-11-03T19:15:12.972Z,134.23
2017-11-03T19:20:14.399Z,109.03
2017-11-03T19:22:42.665Z,114.10
2017-11-03T19:25:11.657Z,131.70
2017-11-03T19:27:39.968Z,87.30
2017-11-03T19:30:07.484Z,115.00
2017-11-03T19:32:34.984Z,116.53
2017-11-03T19:35:02.540Z,157.60
2017-11-03T19:37:30.058Z,129.93
2017-11-03T19:39:59.066Z,124.83
2017-11-03T19:42:27.354Z,58.73
2017-11-03T19:44:55.638Z,230.93
2017-11-03T19:47:23.922Z,160.63
2017-11-03T19:49:51.445Z,137.57
2017-11-03T19:52:18.945Z,193.77
2017-11-03T19:54:46.453Z,96.93
2017-11-03T19:57:14.061Z,109.90
2017-11-03T19:59:41.565Z,72.87
2017-11-03T20:02:09.089Z,104.73
2017-11-03T20:04:36.654Z,92.80
2017-11-03T20:07:04.173Z,100.13
2017-11-03T20:09:32.532Z,93.10
2017-11-03T20:12:00.053Z,71.13
2017-11-03T20:14:27.554Z,49.70
2017-11-03T20:16:55.037Z,65.87
2017-11-03T20:19:23.320Z,47.80
2017-11-03T20:21:50.818Z,66.30
2017-11-03T20:24:18.305Z,69.70
2017-11-03T20:26:45.823Z,51.22
2017-11-03T20:29:13.313Z,42.50
2017-11-03T20:31:40.811Z,27.23
2017-11-03T20:34:08.328Z,29.40
2017-11-03T20:36:35.820Z,30.00
2017-11-03T20:39:04.102Z,30.67
2017-11-03T20:41:31.666Z,27.33
2017-11-03T20:43:59.172Z,23.00
2017-11-03T20:46:26.655Z,23.13
2017-11-03T20:48:54.172Z,22.33
2017-11-03T20:51:21.661Z,23.73
2017-11-03T20:53:49.937Z,23.60
2017-11-03T20:56:17.463Z,23.67
2017-11-03T20:58:44.960Z,25.77
2017-11-03T21:01:13.237Z,28.47
2017-11-03T21:03:41.537Z,29.23
2017-11-03T21:06:09.030Z,27.03
2017-11-03T21:08:36.529Z,27.67
2017-11-03T21:11:04.068Z,27.07
2017-11-03T21:13:31.557Z,25.43
2017-11-03T21:15:59.826Z,25.70
2017-11-03T21:18:28.108Z,25.90
2017-11-03T21:20:55.611Z,29.87
2017-11-03T21:23:23.132Z,30.27
2017-11-03T21:25:51.406Z,27.97
2017-11-03T21:28:19.677Z,31.30
2017-11-03T21:30:47.201Z,30.37
2017-11-03T21:33:14.713Z,31.57
2017-11-03T21:35:42.210Z,32.17
2017-11-03T21:38:09.706Z,29.20
2017-11-03T21:40:37.991Z,26.93
2017-11-03T21:43:06.244Z,28.47
2017-11-03T21:45:33.749Z,28.40
2017-11-03T21:48:01.276Z,31.17
2017-11-03T21:50:29.527Z,31.57
2017-11-03T21:52:57.016Z,34.93
2017-11-03T21:55:25.341Z,29.40
2017-11-03T21:57:53.670Z,31.17
2017-11-03T22:00:21.933Z,31.17
2017-11-03T22:02:50.224Z,29.53
2017-11-03T22:05:18.489Z,33.50
2017-11-03T22:07:46.045Z,31.33
2017-11-03T22:10:14.333Z,33.87
2017-11-03T22:12:42.597Z,37.07
2017-11-03T22:15:10.084Z,37.20
2017-11-03T22:17:37.596Z,39.37
2017-11-03T22:20:05.086Z,43.23
2017-11-03T22:22:33.349Z,44.97
2017-11-03T22:25:01.624Z,38.93
2017-11-03T22:27:29.940Z,34.00
2017-11-03T22:29:57.424Z,32.37
2017-11-03T22:32:24.942Z,35.70
2017-11-03T22:34:52.430Z,32.50
2017-11-03T22:37:19.934Z,65.27
2017-11-03T22:39:48.214Z,68.87
2017-11-03T22:42:16.472Z,36.67
2017-11-03T22:44:43.982Z,34.47
2017-11-03T22:47:11.498Z,33.83
2017-11-03T22:49:38.998Z,32.33
2017-11-03T22:52:06.513Z,34.43
2017-11-03T22:54:34.017Z,31.97
2017-11-03T22:57:01.521Z,34.93
2017-11-03T22:59:32.540Z,36.23
2017-11-03T23:02:00.062Z,35.57
2017-11-03T23:04:27.613Z,33.90
2017-11-03T23:06:55.124Z,33.23
2017-11-03T23:09:22.638Z,31.50
2017-11-03T23:11:50.139Z,35.70
2017-11-03T23:14:17.650Z,32.43
2017-11-03T23:16:45.160Z,34.00
2017-11-03T23:19:12.640Z,37.13
2017-11-03T23:21:40.893Z,36.10
2017-11-03T23:24:08.425Z,34.83
2017-11-03T23:26:35.921Z,36.83
2017-11-03T23:29:03.409Z,33.70
2017-11-03T23:31:30.913Z,37.60
2017-11-03T23:33:58.437Z,33.03
2017-11-03T23:36:25.939Z,36.43
2017-11-03T23:38:53.457Z,33.50
2017-11-03T23:41:20.966Z,33.87
2017-11-03T23:43:48.464Z,33.67
2017-11-03T23:46:15.981Z,37.57
2017-11-03T23:48:43.482Z,34.63
2017-11-03T23:51:10.990Z,32.60
2017-11-03T23:53:38.506Z,34.50
2017-11-03T23:56:06.004Z,38.80
2017-11-03T23:58:33.490Z,38.07
